Main page
METAR-TAF:

METAR-TAF

Airports :

Ostend–Bruges International Airport

Ostend, Belgium

latitude: 51-12N, longitude: 002-52E, elevation: 4 m

Current weather observation

The report was made 17 minutes ago, at 08:50 UTC
Wind 12 kt from the West
Temperature 18°C
Humidity 77%
Pressure 1020 hPa
Visibility 10 km or more
Few clouds at a height of 1500 ft
Broken clouds at a height of 2600 ft

METAR: EBOS 150850Z 26012KT 9999 FEW015 BKN026 18/14 Q1020 NOSIG

Time: 11:07 (09:07 UTC)

Forecast

The report was made 3 hours and 47 minutes ago, at 05:20 UTC
Forecast valid from 15 at 06 UTC to 16 at 12 UTC
Wind 11 kt from the West/Southwest
Visibility 10 km or more
Few clouds at a height of 2000 ft
Probability 40% :
Temporary
from 15 at 06 UTC to 15 at 11 UTC
Broken clouds at a height of 1100 ft
Probability 30% :
Temporary
from 15 at 06 UTC to 15 at 11 UTC
Broken clouds at a height of 800 ft

TAF: EBOS 150520Z 1506/1612 25011KT 9999 FEW020 PROB40 TEMPO 1506/1511 BKN011 PROB30 TEMPO 1506/1511 BKN008

Weather observations and forecasts of more than 4000 airports (METAR and TAF reports).

The available stations are represented by yellow and red dots on the map.

Hover mouse over dot to see the name of the station.

Then click to see weather observations and forecasts.

To change the map : click on the green buttons with a black cross to zoom in, on the green button with a dash to zoom out, or on the green arrows for adjacent maps.


METAR-TAF: